Time;durP1;ratioP1;P1;durP2;ratioP2;P2;SDS_P1;SDS_P2;PMS_P1;PMS_P2;Temp;Humidity;BMP_temperature;BMP_pressure;BME280_temperature;BME280_humidity;BME280_pressure;Samples;Min_cycle;Max_cycle;Signal;HPM_P1;HPM_P2
2021/08/07 00:01:43;;;;;;;2.60;2.33;;;;;;;;;;5035627;28;20025;-68
2021/08/07 00:04:08;;;;;;;3.35;2.97;;;;;;;;;;5034921;28;20030;-68
2021/08/07 00:06:33;;;;;;;2.78;2.25;;;;;;;;;;5035645;28;20026;-68
2021/08/07 00:09:00;;;;;;;2.70;2.42;;;;;;;;;;5035475;28;20386;-68
2021/08/07 00:11:26;;;;;;;3.80;2.80;;;;;;;;;;5035384;28;20148;-68
2021/08/07 00:13:51;;;;;;;2.95;2.55;;;;;;;;;;5035099;28;20028;-67
2021/08/07 00:16:17;;;;;;;3.90;2.65;;;;;;;;;;5035451;28;20018;-67
2021/08/07 00:18:44;;;;;;;4.25;2.97;;;;;;;;;;5035267;28;20024;-68
2021/08/07 00:21:10;;;;;;;6.82;3.15;;;;;;;;;;5035234;28;20032;-67
2021/08/07 00:23:37;;;;;;;7.75;3.40;;;;;;;;;;5035141;28;20018;-67
2021/08/07 00:26:03;;;;;;;4.20;3.13;;;;;;;;;;5035268;28;20059;-68
2021/08/07 00:28:29;;;;;;;6.68;3.28;;;;;;;;;;5035117;28;20017;-68
2021/08/07 00:30:55;;;;;;;4.40;3.05;;;;;;;;;;5034992;28;20032;-68
2021/08/07 00:33:21;;;;;;;5.63;3.40;;;;;;;;;;5034991;28;20052;-67
2021/08/07 00:35:47;;;;;;;5.03;3.40;;;;;;;;;;5034986;28;20530;-67
2021/08/07 00:38:13;;;;;;;6.97;4.05;;;;;;;;;;5034781;28;20500;-67
2021/08/07 00:40:40;;;;;;;5.05;3.65;;;;;;;;;;5034940;28;20039;-67
2021/08/07 00:43:07;;;;;;;7.13;3.58;;;;;;;;;;5034941;28;20385;-67
2021/08/07 00:45:33;;;;;;;6.50;3.60;;;;;;;;;;5034722;28;20027;-67
2021/08/07 00:47:59;;;;;;;5.13;3.53;;;;;;;;;;5034671;28;20096;-68
2021/08/07 00:50:25;;;;;;;6.43;3.78;;;;;;;;;;5034657;28;20021;-68
2021/08/07 00:52:51;;;;;;;4.07;3.40;;;;;;;;;;5034685;28;20028;-68
2021/08/07 00:55:17;;;;;;;5.20;3.40;;;;;;;;;;5034602;28;20417;-68
2021/08/07 00:57:43;;;;;;;5.55;3.50;;;;;;;;;;5034602;28;20021;-68
2021/08/07 01:00:10;;;;;;;8.25;3.90;;;;;;;;;;5034338;28;20386;-67
2021/08/07 01:02:35;;;;;;;7.38;3.55;;;;;;;;;;5034468;28;20026;-68
2021/08/07 01:05:19;;;;;;;8.48;4.20;;;;;;;;;;5033975;28;20049;-68
2021/08/07 01:08:03;;;;;;;5.78;3.72;;;;;;;;;;5034354;28;20151;-68
2021/08/07 01:10:36;;;;;;;6.65;4.28;;;;;;;;;;5034307;28;20045;-67
2021/08/07 01:13:09;;;;;;;5.53;3.75;;;;;;;;;;5033135;28;20106;-68
2021/08/07 01:15:38;;;;;;;8.02;4.07;;;;;;;;;;5034303;28;20359;-67
2021/08/07 01:18:06;;;;;;;7.80;3.75;;;;;;;;;;5034140;28;20021;-68
2021/08/07 01:20:35;;;;;;;7.38;4.10;;;;;;;;;;5034178;28;20542;-68
2021/08/07 01:23:00;;;;;;;;;;;;;;;;;;5034521;28;20550;-68
2021/08/07 01:25:45;;;;;;;4.63;3.47;;;;;;;;;;5034007;28;20011;-67
2021/08/07 01:28:10;;;;;;;7.20;3.97;;;;;;;;;;5033788;28;20101;-67
2021/08/07 01:30:37;;;;;;;5.70;4.35;;;;;;;;;;5033887;28;20109;-67
2021/08/07 01:33:03;;;;;;;8.18;4.50;;;;;;;;;;5033933;28;20022;-68
2021/08/07 01:35:29;;;;;;;6.68;4.00;;;;;;;;;;5033789;28;20493;-67
2021/08/07 01:37:55;;;;;;;6.78;3.33;;;;;;;;;;5033947;28;20083;-69
2021/08/07 01:40:22;;;;;;;5.68;3.72;;;;;;;;;;5033575;28;20009;-67
2021/08/07 01:42:48;;;;;;;5.07;3.55;;;;;;;;;;5033665;28;20431;-68
2021/08/07 01:45:14;;;;;;;6.38;3.38;;;;;;;;;;5033541;28;20033;-68
2021/08/07 01:47:43;;;;;;;6.75;3.80;;;;;;;;;;5033688;28;20039;-68
2021/08/07 01:50:12;;;;;;;5.78;3.60;;;;;;;;;;5015740;28;20540;-68
2021/08/07 01:52:41;;;;;;;5.50;4.00;;;;;;;;;;5031525;28;20029;-68
2021/08/07 01:55:11;;;;;;;3.60;3.03;;;;;;;;;;5033031;28;20025;-68
2021/08/07 01:57:40;;;;;;;5.03;3.30;;;;;;;;;;5033453;28;20028;-68
2021/08/07 02:00:12;;;;;;;4.95;3.85;;;;;;;;;;5033250;28;20022;-67
2021/08/07 02:02:39;;;;;;;5.93;3.60;;;;;;;;;;5033148;28;20018;-68
2021/08/07 02:05:05;;;;;;;6.10;3.88;;;;;;;;;;5033111;28;20128;-68
2021/08/07 02:07:32;;;;;;;7.85;3.92;;;;;;;;;;5033316;28;20108;-67
2021/08/07 02:09:58;;;;;;;8.00;4.40;;;;;;;;;;5033056;28;20453;-67
2021/08/07 02:12:25;;;;;;;5.70;4.90;;;;;;;;;;5033232;28;20014;-67
2021/08/07 02:14:52;;;;;;;6.47;4.20;;;;;;;;;;5033143;28;20096;-67
2021/08/07 02:17:18;;;;;;;7.68;3.58;;;;;;;;;;5032503;28;20025;-67
2021/08/07 02:19:46;;;;;;;6.93;3.55;;;;;;;;;;5033357;28;20013;-67
2021/08/07 02:22:12;;;;;;;5.80;3.63;;;;;;;;;;5032747;28;20056;-67
2021/08/07 02:24:37;;;;;;;3.85;3.05;;;;;;;;;;5033023;28;20034;-67
2021/08/07 02:27:04;;;;;;;4.70;3.65;;;;;;;;;;5032934;28;20044;-67
2021/08/07 02:29:31;;;;;;;5.93;3.60;;;;;;;;;;5032932;28;20026;-68
2021/08/07 02:31:58;;;;;;;5.72;3.75;;;;;;;;;;5032744;28;20493;-67
2021/08/07 02:34:25;;;;;;;5.55;3.60;;;;;;;;;;5031721;28;20104;-67
2021/08/07 02:36:52;;;;;;;4.20;3.05;;;;;;;;;;5032791;28;20013;-67
2021/08/07 02:39:18;;;;;;;5.72;3.33;;;;;;;;;;5032795;28;20022;-67
2021/08/07 02:41:44;;;;;;;6.82;4.63;;;;;;;;;;5032889;28;20355;-67
2021/08/07 02:44:09;;;;;;;7.68;4.30;;;;;;;;;;5032484;28;20028;-67
2021/08/07 02:46:38;;;;;;;6.15;3.60;;;;;;;;;;5032860;28;20363;-67
2021/08/07 02:49:04;;;;;;;4.87;4.20;;;;;;;;;;5032845;28;20071;-67
2021/08/07 02:51:31;;;;;;;6.53;4.38;;;;;;;;;;5032571;28;20021;-67
2021/08/07 02:53:57;;;;;;;5.63;3.80;;;;;;;;;;5032530;28;20028;-67
2021/08/07 02:56:23;;;;;;;4.35;3.72;;;;;;;;;;5032838;28;20028;-67
2021/08/07 02:58:49;;;;;;;7.70;4.28;;;;;;;;;;5032786;28;20352;-67
2021/08/07 03:01:15;;;;;;;7.38;4.20;;;;;;;;;;5032596;28;20028;-67
2021/08/07 03:03:41;;;;;;;8.52;4.32;;;;;;;;;;5032461;28;20025;-67
2021/08/07 03:06:07;;;;;;;6.15;3.78;;;;;;;;;;5032182;28;20102;-67
2021/08/07 03:08:33;;;;;;;5.85;3.85;;;;;;;;;;5032502;28;20017;-67
2021/08/07 03:11:00;;;;;;;5.00;3.28;;;;;;;;;;5032500;28;20547;-67
2021/08/07 03:13:26;;;;;;;11.05;4.07;;;;;;;;;;5032507;28;20017;-67
2021/08/07 03:15:52;;;;;;;5.15;3.97;;;;;;;;;;5032285;28;20052;-67
2021/08/07 03:18:18;;;;;;;7.75;4.28;;;;;;;;;;5032458;28;20481;-67
2021/08/07 03:20:44;;;;;;;7.82;3.60;;;;;;;;;;5032227;28;20039;-67
2021/08/07 03:23:11;;;;;;;5.97;4.38;;;;;;;;;;5032363;28;20021;-66
2021/08/07 03:25:37;;;;;;;6.03;4.22;;;;;;;;;;5032370;28;20076;-67
2021/08/07 03:28:03;;;;;;;5.93;3.67;;;;;;;;;;5032970;28;20013;-67
2021/08/07 03:30:29;;;;;;;6.43;4.05;;;;;;;;;;5036348;28;20386;-67
2021/08/07 03:32:55;;;;;;;8.27;4.50;;;;;;;;;;5036250;28;20026;-67
2021/08/07 03:35:22;;;;;;;6.78;4.90;;;;;;;;;;5036037;28;20052;-67
2021/08/07 03:37:48;;;;;;;9.38;4.90;;;;;;;;;;5036090;28;20121;-67
2021/08/07 03:40:14;;;;;;;8.48;4.55;;;;;;;;;;5035825;28;20451;-67
2021/08/07 03:42:41;;;;;;;8.80;4.18;;;;;;;;;;5035948;28;20053;-67
2021/08/07 03:45:09;;;;;;;8.48;4.40;;;;;;;;;;5035791;28;20032;-67
2021/08/07 03:47:48;;;;;;;7.93;4.20;;;;;;;;;;5036180;28;20020;-67
2021/08/07 03:50:14;;;;;;;8.23;5.00;;;;;;;;;;5035636;28;20022;-67
2021/08/07 03:52:40;;;;;;;7.95;5.97;;;;;;;;;;5035739;28;20017;-67
2021/08/07 03:55:06;;;;;;;12.40;5.88;;;;;;;;;;5036052;28;20095;-68
2021/08/07 03:57:45;;;;;;;8.45;5.40;;;;;;;;;;5035755;28;20021;-67
2021/08/07 04:00:11;;;;;;;7.32;4.78;;;;;;;;;;5035510;28;20013;-68
2021/08/07 04:02:38;;;;;;;12.30;5.93;;;;;;;;;;5035442;28;20070;-67
2021/08/07 04:05:04;;;;;;;10.43;5.72;;;;;;;;;;5035395;28;20050;-67
2021/08/07 04:07:29;;;;;;;10.70;6.40;;;;;;;;;;5035562;28;20108;-67
2021/08/07 04:09:55;;;;;;;10.27;6.85;;;;;;;;;;5035311;28;20053;-67
2021/08/07 04:12:22;;;;;;;13.18;8.57;;;;;;;;;;5035459;28;20028;-67
2021/08/07 04:14:48;;;;;;;15.75;9.90;;;;;;;;;;5035404;28;20034;-67
2021/08/07 04:17:13;;;;;;;14.80;9.60;;;;;;;;;;5035362;28;20031;-67
2021/08/07 04:19:39;;;;;;;15.38;8.77;;;;;;;;;;5035201;28;20032;-67
2021/08/07 04:22:06;;;;;;;18.88;8.32;;;;;;;;;;5035192;28;20022;-69
2021/08/07 04:24:32;;;;;;;14.00;8.45;;;;;;;;;;5035076;28;20026;-67
2021/08/07 04:26:58;;;;;;;14.77;7.40;;;;;;;;;;5035438;28;20108;-67
2021/08/07 04:29:24;;;;;;;17.02;8.27;;;;;;;;;;5033656;28;20468;-67
2021/08/07 04:31:50;;;;;;;12.23;7.70;;;;;;;;;;5034914;28;20097;-68
2021/08/07 04:34:17;;;;;;;12.13;7.68;;;;;;;;;;5034775;28;20035;-67
2021/08/07 04:36:43;;;;;;;14.05;8.48;;;;;;;;;;5034966;28;20562;-67
2021/08/07 04:39:08;;;;;;;10.60;6.38;;;;;;;;;;5034483;28;20071;-67
2021/08/07 04:41:35;;;;;;;11.95;7.30;;;;;;;;;;5035016;28;20022;-67
2021/08/07 04:44:01;;;;;;;11.25;7.10;;;;;;;;;;5034580;28;20025;-68
2021/08/07 04:46:29;;;;;;;14.23;7.32;;;;;;;;;;5034691;28;20028;-67
2021/08/07 04:48:54;;;;;;;8.82;4.72;;;;;;;;;;5035056;28;20493;-67
2021/08/07 04:51:21;;;;;;;9.32;4.55;;;;;;;;;;5034593;28;20060;-67
2021/08/07 04:53:47;;;;;;;11.93;4.30;;;;;;;;;;5034679;28;20040;-68
2021/08/07 04:56:13;;;;;;;6.90;4.35;;;;;;;;;;5034382;28;20474;-68
2021/08/07 04:58:38;;;;;;;8.50;4.22;;;;;;;;;;5034613;28;20032;-66
2021/08/07 05:01:04;;;;;;;9.52;4.80;;;;;;;;;;5034550;28;20037;-67
2021/08/07 05:03:31;;;;;;;7.30;4.60;;;;;;;;;;5034269;28;20390;-67
2021/08/07 05:05:57;;;;;;;10.45;4.65;;;;;;;;;;5034155;28;20050;-67
2021/08/07 05:08:22;;;;;;;8.50;4.40;;;;;;;;;;5034351;28;20044;-68
2021/08/07 05:10:48;;;;;;;6.50;4.03;;;;;;;;;;5034335;28;20022;-67
2021/08/07 05:13:14;;;;;;;6.82;3.67;;;;;;;;;;5034471;28;20423;-67
2021/08/07 05:15:41;;;;;;;6.47;3.13;;;;;;;;;;5034457;28;20053;-67
2021/08/07 05:18:07;;;;;;;3.65;2.90;;;;;;;;;;5034155;28;20013;-67
2021/08/07 05:20:32;;;;;;;4.30;3.22;;;;;;;;;;5034032;28;20075;-67
2021/08/07 05:22:58;;;;;;;4.82;3.47;;;;;;;;;;5034213;28;20029;-67
2021/08/07 05:25:25;;;;;;;4.63;3.28;;;;;;;;;;5034105;28;20068;-67
2021/08/07 05:27:51;;;;;;;9.65;3.88;;;;;;;;;;5033955;28;20013;-68
2021/08/07 05:30:17;;;;;;;7.70;3.80;;;;;;;;;;5033861;28;20017;-67
2021/08/07 05:32:43;;;;;;;4.13;3.28;;;;;;;;;;5033956;28;20501;-67
2021/08/07 05:35:10;;;;;;;5.72;3.30;;;;;;;;;;5034136;28;20025;-67
2021/08/07 05:37:40;;;;;;;7.10;3.08;;;;;;;;;;5033807;28;20033;-67
2021/08/07 05:40:06;;;;;;;4.43;3.00;;;;;;;;;;5033791;28;20466;-67
2021/08/07 05:42:33;;;;;;;6.95;3.80;;;;;;;;;;5033689;28;20075;-67
2021/08/07 05:44:59;;;;;;;4.80;2.97;;;;;;;;;;5033795;28;20032;-67
2021/08/07 05:47:25;;;;;;;5.03;3.55;;;;;;;;;;5033601;28;20120;-67
2021/08/07 05:49:50;;;;;;;6.72;3.70;;;;;;;;;;5033524;28;20538;-67
2021/08/07 05:52:17;;;;;;;7.97;3.22;;;;;;;;;;5032550;28;20048;-67
2021/08/07 05:54:43;;;;;;;12.25;3.78;;;;;;;;;;5033381;28;20486;-67
2021/08/07 05:57:11;;;;;;;3.53;2.78;;;;;;;;;;5033398;28;20564;-67
2021/08/07 05:59:36;;;;;;;5.60;2.92;;;;;;;;;;5033420;28;20390;-67
2021/08/07 06:02:02;;;;;;;4.80;3.55;;;;;;;;;;5033213;28;20022;-67
2021/08/07 06:04:29;;;;;;;8.38;3.20;;;;;;;;;;5033232;28;20037;-67
2021/08/07 06:06:56;;;;;;;11.05;3.40;;;;;;;;;;5033444;28;20072;-67
2021/08/07 06:09:22;;;;;;;3.78;2.53;;;;;;;;;;5033632;28;20034;-67
2021/08/07 06:11:48;;;;;;;7.78;2.38;;;;;;;;;;5033256;28;20108;-67
2021/08/07 06:14:14;;;;;;;4.97;1.70;;;;;;;;;;5032922;28;20104;-67
2021/08/07 06:16:41;;;;;;;3.65;2.08;;;;;;;;;;5033148;28;20063;-67
2021/08/07 06:19:06;;;;;;;3.28;1.90;;;;;;;;;;5033114;28;20010;-68
2021/08/07 06:21:32;;;;;;;3.42;1.90;;;;;;;;;;5033060;28;20091;-69
2021/08/07 06:23:58;;;;;;;1.92;1.67;;;;;;;;;;5032838;28;20102;-68
2021/08/07 06:26:25;;;;;;;1.85;1.45;;;;;;;;;;5033047;28;20021;-68
2021/08/07 06:28:52;;;;;;;2.42;1.40;;;;;;;;;;5032875;28;20048;-67
2021/08/07 06:31:17;;;;;;;4.00;1.65;;;;;;;;;;5032888;28;20036;-67
2021/08/07 06:33:43;;;;;;;2.00;1.75;;;;;;;;;;5032847;28;20018;-66
2021/08/07 06:36:09;;;;;;;2.05;1.52;;;;;;;;;;5032754;28;20056;-66
2021/08/07 06:38:36;;;;;;;2.88;1.48;;;;;;;;;;5033037;28;20025;-67
2021/08/07 06:41:02;;;;;;;2.88;1.42;;;;;;;;;;5032921;28;20021;-67
2021/08/07 06:43:28;;;;;;;2.03;1.48;;;;;;;;;;5032600;28;20009;-67
2021/08/07 06:45:55;;;;;;;2.13;1.52;;;;;;;;;;5032618;28;20071;-69
2021/08/07 06:48:21;;;;;;;1.38;1.27;;;;;;;;;;5032641;28;20013;-67
2021/08/07 06:50:47;;;;;;;2.33;1.65;;;;;;;;;;5031717;28;20431;-68
2021/08/07 06:53:13;;;;;;;3.88;1.58;;;;;;;;;;5032656;28;20427;-67
2021/08/07 06:55:40;;;;;;;2.13;1.48;;;;;;;;;;5032703;28;20022;-67
2021/08/07 06:58:06;;;;;;;2.10;1.50;;;;;;;;;;5032293;28;20028;-67
2021/08/07 07:00:35;;;;;;;1.90;1.50;;;;;;;;;;5032556;28;20027;-67
2021/08/07 07:03:00;;;;;;;;;;;;;;;;;;5034380;28;20014;-67
2021/08/07 07:05:31;;;;;;;2.67;1.40;;;;;;;;;;5036501;28;19978;-67
2021/08/07 07:07:57;;;;;;;1.70;1.40;;;;;;;;;;5036501;28;20425;-67
2021/08/07 07:10:24;;;;;;;1.60;1.50;;;;;;;;;;5036505;28;20013;-66
2021/08/07 07:12:50;;;;;;;1.38;1.25;;;;;;;;;;5035796;28;20045;-67
2021/08/07 07:15:17;;;;;;;6.65;1.77;;;;;;;;;;5036532;28;20474;-67
2021/08/07 07:17:44;;;;;;;2.47;1.60;;;;;;;;;;5036449;28;20037;-68
2021/08/07 07:20:11;;;;;;;1.20;1.10;;;;;;;;;;5036102;28;20106;-67
2021/08/07 07:22:37;;;;;;;1.50;1.40;;;;;;;;;;5036352;28;20040;-67
2021/08/07 07:25:04;;;;;;;1.77;1.20;;;;;;;;;;5036260;28;20493;-67
2021/08/07 07:27:31;;;;;;;2.50;1.40;;;;;;;;;;5036034;28;20048;-67
2021/08/07 07:29:57;;;;;;;1.73;1.48;;;;;;;;;;5036112;28;20486;-67
2021/08/07 07:32:23;;;;;;;1.75;1.33;;;;;;;;;;5036241;28;20027;-67
2021/08/07 07:34:49;;;;;;;2.47;1.27;;;;;;;;;;5036119;28;20072;-67
2021/08/07 07:37:16;;;;;;;1.63;1.13;;;;;;;;;;5036096;28;20022;-67
2021/08/07 07:39:41;;;;;;;1.75;1.20;;;;;;;;;;5035974;28;20044;-67
2021/08/07 07:42:07;;;;;;;4.43;1.50;;;;;;;;;;5035746;28;20506;-68
2021/08/07 07:44:33;;;;;;;4.18;1.20;;;;;;;;;;5036105;28;20108;-67
2021/08/07 07:46:59;;;;;;;2.05;1.23;;;;;;;;;;5036083;28;20041;-67
2021/08/07 07:49:25;;;;;;;1.30;1.02;;;;;;;;;;5035833;28;20017;-67
2021/08/07 07:51:51;;;;;;;1.55;1.20;;;;;;;;;;5035753;28;20021;-67
2021/08/07 07:54:16;;;;;;;4.43;0.90;;;;;;;;;;5036233;28;20100;-67
2021/08/07 07:56:42;;;;;;;1.10;0.98;;;;;;;;;;5035656;28;20028;-67
2021/08/07 07:59:09;;;;;;;1.77;1.38;;;;;;;;;;5035757;28;20026;-68
2021/08/07 08:01:35;;;;;;;2.67;1.00;;;;;;;;;;5035771;28;20029;-67
2021/08/07 08:04:01;;;;;;;3.70;1.42;;;;;;;;;;5035509;28;20025;-67
2021/08/07 08:06:27;;;;;;;1.90;1.23;;;;;;;;;;5035379;28;20053;-67
2021/08/07 08:08:53;;;;;;;1.95;1.35;;;;;;;;;;5035708;28;20052;-67
2021/08/07 08:11:18;;;;;;;2.38;1.00;;;;;;;;;;5033961;28;20028;-67
2021/08/07 08:13:45;;;;;;;1.08;0.90;;;;;;;;;;5034517;28;20021;-67
2021/08/07 08:16:11;;;;;;;1.10;1.00;;;;;;;;;;5035293;28;20165;-68
2021/08/07 08:18:38;;;;;;;1.95;1.05;;;;;;;;;;5035404;28;20036;-67
2021/08/07 08:21:04;;;;;;;1.10;1.00;;;;;;;;;;5035395;28;20018;-68
2021/08/07 08:23:30;;;;;;;2.65;1.08;;;;;;;;;;5035210;28;20021;-69
2021/08/07 08:25:56;;;;;;;16.38;2.03;;;;;;;;;;5035743;28;20461;-67
2021/08/07 08:28:22;;;;;;;1.88;1.33;;;;;;;;;;5035177;28;20056;-67
2021/08/07 08:30:48;;;;;;;1.20;1.08;;;;;;;;;;5035220;28;20429;-67
2021/08/07 08:33:14;;;;;;;3.45;1.15;;;;;;;;;;5035036;28;20071;-66
2021/08/07 08:35:43;;;;;;;2.05;0.90;;;;;;;;;;5035117;28;20144;-67
2021/08/07 08:38:11;;;;;;;6.07;1.35;;;;;;;;;;5034894;28;20018;-67
2021/08/07 08:40:37;;;;;;;3.40;1.10;;;;;;;;;;5034923;28;20434;-67
2021/08/07 08:43:03;;;;;;;1.50;1.23;;;;;;;;;;5034972;28;20025;-67
2021/08/07 08:45:29;;;;;;;2.45;0.93;;;;;;;;;;5034694;28;20051;-67
2021/08/07 08:47:56;;;;;;;2.13;1.20;;;;;;;;;;5034779;28;20013;-68
2021/08/07 08:50:22;;;;;;;1.10;1.00;;;;;;;;;;5034835;28;20101;-67
2021/08/07 08:52:48;;;;;;;1.33;1.17;;;;;;;;;;5034740;28;20497;-68
2021/08/07 08:55:15;;;;;;;1.90;1.13;;;;;;;;;;5034498;28;20014;-68
2021/08/07 08:57:42;;;;;;;4.15;1.30;;;;;;;;;;5034498;28;20063;-70
2021/08/07 09:00:08;;;;;;;2.22;1.20;;;;;;;;;;5034435;28;20043;-70
2021/08/07 09:02:33;;;;;;;2.10;1.17;;;;;;;;;;5034478;28;20053;-70
2021/08/07 09:05:00;;;;;;;3.22;1.08;;;;;;;;;;5034390;28;20060;-69
2021/08/07 09:07:26;;;;;;;1.55;1.05;;;;;;;;;;5033249;28;20017;-68
2021/08/07 09:09:53;;;;;;;1.48;0.85;;;;;;;;;;5034043;28;20028;-69
2021/08/07 09:12:19;;;;;;;1.98;1.00;;;;;;;;;;5034303;28;20452;-69
2021/08/07 09:14:45;;;;;;;3.28;0.90;;;;;;;;;;5034305;28;20096;-68
2021/08/07 09:17:15;;;;;;;4.28;1.17;;;;;;;;;;5034320;28;20467;-69
2021/08/07 09:19:48;;;;;;;1.63;0.90;;;;;;;;;;5034255;28;20022;-68
2021/08/07 09:22:17;;;;;;;1.73;0.95;;;;;;;;;;5033939;28;20025;-68
2021/08/07 09:24:53;;;;;;;5.50;1.10;;;;;;;;;;5033896;28;20032;-67
2021/08/07 09:27:35;;;;;;;1.00;0.80;;;;;;;;;;5033976;28;20021;-68
2021/08/07 09:30:02;;;;;;;1.65;1.13;;;;;;;;;;5033788;28;20014;-68
2021/08/07 09:32:37;;;;;;;1.15;1.00;;;;;;;;;;5033950;28;20104;-68
2021/08/07 09:35:04;;;;;;;4.80;1.15;;;;;;;;;;5033737;28;20018;-67
2021/08/07 09:37:31;;;;;;;2.83;1.13;;;;;;;;;;5033976;28;20021;-67
2021/08/07 09:39:58;;;;;;;2.22;1.00;;;;;;;;;;5033573;28;20037;-67
2021/08/07 09:42:24;;;;;;;2.03;0.90;;;;;;;;;;5033784;28;20052;-68
2021/08/07 09:45:06;;;;;;;3.78;1.13;;;;;;;;;;5033548;28;20429;-68
2021/08/07 09:47:32;;;;;;;3.50;1.00;;;;;;;;;;5033667;28;20057;-67
2021/08/07 09:49:59;;;;;;;1.10;1.00;;;;;;;;;;5033339;28;20022;-67
2021/08/07 09:52:33;;;;;;;2.10;0.98;;;;;;;;;;5033587;28;20017;-68
2021/08/07 09:55:00;;;;;;;3.67;1.15;;;;;;;;;;5033536;28;20025;-68
2021/08/07 09:57:27;;;;;;;1.73;1.00;;;;;;;;;;5033621;28;20010;-68
2021/08/07 09:59:54;;;;;;;2.55;1.00;;;;;;;;;;5033372;28;20025;-68
2021/08/07 10:02:30;;;;;;;4.07;1.00;;;;;;;;;;5033192;28;20029;-68
2021/08/07 10:04:58;;;;;;;1.35;1.05;;;;;;;;;;5033415;28;20045;-67
2021/08/07 10:07:25;;;;;;;1.67;1.27;;;;;;;;;;5033332;28;20018;-68
2021/08/07 10:09:50;;;;;;;2.05;0.95;;;;;;;;;;5033252;28;20108;-67
2021/08/07 10:12:16;;;;;;;2.22;1.10;;;;;;;;;;5033040;28;20104;-67
2021/08/07 10:14:45;;;;;;;4.43;1.13;;;;;;;;;;5032981;28;20048;-68
2021/08/07 10:17:11;;;;;;;;;;;;;;;;;;5032426;28;20539;-67
2021/08/07 10:19:38;;;;;;;3.05;1.00;;;;;;;;;;5033025;28;19909;-68
2021/08/07 10:22:08;;;;;;;6.47;0.93;;;;;;;;;;5032978;28;20424;-69
2021/08/07 10:24:36;;;;;;;1.77;1.00;;;;;;;;;;5032867;28;20017;-68
2021/08/07 10:27:02;;;;;;;2.97;0.88;;;;;;;;;;5033101;28;20120;-68
2021/08/07 10:29:32;;;;;;;1.45;1.05;;;;;;;;;;5032785;28;20163;-68
2021/08/07 10:31:58;;;;;;;0.98;0.75;;;;;;;;;;5033065;28;20021;-68
2021/08/07 10:34:25;;;;;;;1.67;1.15;;;;;;;;;;5031862;28;20048;-69
2021/08/07 10:36:51;;;;;;;0.80;0.80;;;;;;;;;;5032331;28;20049;-67
2021/08/07 10:39:17;;;;;;;2.00;0.98;;;;;;;;;;5032832;28;20359;-67
2021/08/07 10:41:43;;;;;;;4.13;0.80;;;;;;;;;;5031860;28;20033;-68
2021/08/07 10:44:12;;;;;;;1.70;0.93;;;;;;;;;;5032753;28;20037;-68
2021/08/07 10:46:38;;;;;;;1.95;0.95;;;;;;;;;;5032646;28;20100;-68
2021/08/07 10:49:06;;;;;;;1.38;0.88;;;;;;;;;;5033014;28;20029;-67
2021/08/07 10:51:33;;;;;;;1.50;0.80;;;;;;;;;;5032734;28;20096;-68
2021/08/07 10:54:01;;;;;;;3.10;1.00;;;;;;;;;;5031419;28;20021;-68
2021/08/07 10:56:34;;;;;;;1.40;1.00;;;;;;;;;;5032479;28;20056;-68
2021/08/07 10:59:20;;;;;;;3.53;1.08;;;;;;;;;;5032919;28;20496;-68
2021/08/07 11:01:47;;;;;;;2.60;1.00;;;;;;;;;;5032736;28;20021;-68
2021/08/07 11:04:20;;;;;;;1.63;0.93;;;;;;;;;;5032008;28;20116;-68
2021/08/07 11:06:50;;;;;;;1.70;1.00;;;;;;;;;;5030482;28;20465;-68
2021/08/07 11:09:20;;;;;;;0.90;0.90;;;;;;;;;;5032187;28;20052;-68
2021/08/07 11:11:47;;;;;;;5.78;0.90;;;;;;;;;;5032551;28;20056;-68
2021/08/07 11:14:29;;;;;;;1.00;0.80;;;;;;;;;;5032304;28;20021;-67
2021/08/07 11:17:10;;;;;;;1.05;0.95;;;;;;;;;;5032782;28;20048;-68
2021/08/07 11:20:06;;;;;;;2.13;1.13;;;;;;;;;;5032279;28;20013;-67
2021/08/07 11:22:40;;;;;;;3.97;1.08;;;;;;;;;;5032396;28;20151;-67
2021/08/07 11:25:11;;;;;;;1.90;0.90;;;;;;;;;;5032325;28;20486;-69
2021/08/07 11:27:56;;;;;;;1.20;0.90;;;;;;;;;;5032539;28;20052;-67
2021/08/07 11:30:22;;;;;;;1.10;1.00;;;;;;;;;;5032639;28;20473;-67
2021/08/07 11:33:06;;;;;;;0.95;0.70;;;;;;;;;;5032491;28;20432;-67
2021/08/07 11:35:41;;;;;;;1.95;1.30;;;;;;;;;;5027325;28;20021;-69
2021/08/07 11:38:13;;;;;;;0.90;0.80;;;;;;;;;;5029867;28;20025;-70
2021/08/07 11:40:57;;;;;;;2.47;1.10;;;;;;;;;;5032086;28;20071;-69
2021/08/07 11:43:32;;;;;;;0.98;0.93;;;;;;;;;;5032445;28;20028;-70
2021/08/07 11:46:04;;;;;;;3.28;1.30;;;;;;;;;;5032266;28;20120;-70
2021/08/07 11:48:37;;;;;;;1.40;0.98;;;;;;;;;;5032171;28;20113;-70
2021/08/07 11:51:06;;;;;;;1.92;1.13;;;;;;;;;;5035790;28;20029;-71
2021/08/07 11:53:36;;;;;;;1.02;0.88;;;;;;;;;;5034663;28;20018;-70
2021/08/07 11:56:03;;;;;;;4.70;1.08;;;;;;;;;;5035620;28;20351;-70
2021/08/07 11:58:29;;;;;;;2.40;0.85;;;;;;;;;;5035631;28;20037;-70
2021/08/07 12:00:58;;;;;;;3.25;1.10;;;;;;;;;;5036045;28;20029;-71
2021/08/07 12:03:25;;;;;;;1.80;1.00;;;;;;;;;;5035416;28;20096;-69
2021/08/07 12:05:55;;;;;;;3.13;1.10;;;;;;;;;;5035242;28;20126;-70
2021/08/07 12:08:23;;;;;;;5.25;1.00;;;;;;;;;;5035507;28;20018;-70
2021/08/07 12:10:53;;;;;;;1.58;1.40;;;;;;;;;;5035013;28;20041;-70
2021/08/07 12:13:19;;;;;;;5.70;0.98;;;;;;;;;;5033440;28;20029;-70
2021/08/07 12:16:01;;;;;;;1.67;1.10;;;;;;;;;;5030189;28;20022;-71
2021/08/07 12:18:42;;;;;;;1.08;0.80;;;;;;;;;;5035527;28;20474;-70
2021/08/07 12:21:09;;;;;;;1.25;0.98;;;;;;;;;;5035596;28;20053;-71
2021/08/07 12:23:46;;;;;;;5.45;1.00;;;;;;;;;;5035244;28;20029;-70
2021/08/07 12:26:13;;;;;;;3.03;0.80;;;;;;;;;;5035309;28;20033;-70
2021/08/07 12:28:41;;;;;;;6.07;1.10;;;;;;;;;;5033311;28;20079;-71
2021/08/07 12:31:08;;;;;;;2.13;1.00;;;;;;;;;;5035033;28;20386;-70
2021/08/07 12:33:37;;;;;;;2.63;0.90;;;;;;;;;;5034998;28;20018;-70
2021/08/07 12:36:11;;;;;;;3.95;0.98;;;;;;;;;;5035158;28;20415;-70
2021/08/07 12:38:44;;;;;;;1.55;0.80;;;;;;;;;;5035127;28;20030;-71
2021/08/07 12:41:13;;;;;;;3.30;1.00;;;;;;;;;;5034670;28;20482;-70
2021/08/07 12:43:39;;;;;;;1.00;0.82;;;;;;;;;;5034662;28;20479;-71
2021/08/07 12:46:06;;;;;;;1.15;1.00;;;;;;;;;;5034723;28;20036;-71
2021/08/07 12:48:51;;;;;;;2.55;1.10;;;;;;;;;;5032855;28;20010;-70
2021/08/07 12:51:21;;;;;;;1.48;1.00;;;;;;;;;;5034873;28;20040;-71
2021/08/07 12:53:48;;;;;;;1.13;1.00;;;;;;;;;;5034663;28;20021;-71
2021/08/07 12:56:15;;;;;;;1.40;1.10;;;;;;;;;;5034342;28;20445;-71
2021/08/07 12:58:59;;;;;;;0.93;0.88;;;;;;;;;;5034481;28;20478;-69
2021/08/07 13:01:25;;;;;;;1.35;1.00;;;;;;;;;;5034375;28;20049;-69
2021/08/07 13:03:59;;;;;;;1.42;0.77;;;;;;;;;;5034730;28;20367;-69
2021/08/07 13:06:27;;;;;;;0.70;0.70;;;;;;;;;;5034221;28;20053;-68
2021/08/07 13:08:52;;;;;;;2.88;0.90;;;;;;;;;;5033512;28;20060;-69
2021/08/07 13:11:23;;;;;;;1.05;0.95;;;;;;;;;;5034544;28;20048;-68
2021/08/07 13:13:55;;;;;;;3.80;1.13;;;;;;;;;;5034322;28;20025;-69
2021/08/07 13:16:43;;;;;;;2.75;1.10;;;;;;;;;;5034238;28;20055;-69
2021/08/07 13:19:20;;;;;;;7.40;1.67;;;;;;;;;;5034163;28;20022;-69
2021/08/07 13:21:48;;;;;;;3.63;0.90;;;;;;;;;;5034077;28;20482;-69
2021/08/07 13:24:28;;;;;;;1.10;0.93;;;;;;;;;;5032959;28;20498;-69
2021/08/07 13:26:54;;;;;;;;;;;;;;;;;;5034360;28;20027;-69
2021/08/07 13:29:21;;;;;;;3.13;1.17;;;;;;;;;;5034174;28;19905;-69
2021/08/07 13:31:47;;;;;;;1.02;0.88;;;;;;;;;;5033997;28;20385;-70
2021/08/07 13:34:12;;;;;;;2.53;0.80;;;;;;;;;;5033694;28;20112;-69
2021/08/07 13:36:39;;;;;;;0.82;0.82;;;;;;;;;;5033747;28;20104;-69
2021/08/07 13:39:06;;;;;;;1.48;0.90;;;;;;;;;;5034163;28;20387;-69
2021/08/07 13:41:31;;;;;;;1.50;1.02;;;;;;;;;;5033748;28;20021;-69
2021/08/07 13:43:57;;;;;;;1.17;1.08;;;;;;;;;;5033349;28;22003;-69
2021/08/07 13:46:23;;;;;;;1.45;0.90;;;;;;;;;;5033712;28;20552;-69
2021/08/07 13:48:49;;;;;;;1.25;0.93;;;;;;;;;;5033540;28;20021;-69
2021/08/07 13:51:16;;;;;;;1.65;0.90;;;;;;;;;;5033634;28;20076;-69
2021/08/07 13:53:42;;;;;;;2.70;0.90;;;;;;;;;;5033749;28;20029;-70
2021/08/07 13:56:09;;;;;;;6.53;1.15;;;;;;;;;;5033378;28;20017;-69
2021/08/07 13:58:35;;;;;;;6.00;1.10;;;;;;;;;;5033318;28;20013;-70
2021/08/07 14:01:01;;;;;;;3.67;1.08;;;;;;;;;;5033647;28;20028;-70
2021/08/07 14:03:28;;;;;;;4.18;1.55;;;;;;;;;;5033213;28;20528;-70
2021/08/07 14:05:54;;;;;;;1.48;0.90;;;;;;;;;;5032964;28;20152;-70
2021/08/07 14:08:20;;;;;;;2.05;1.45;;;;;;;;;;5033209;28;20025;-69
2021/08/07 14:10:47;;;;;;;2.17;1.73;;;;;;;;;;5033380;28;20024;-70
2021/08/07 14:13:12;;;;;;;2.67;1.00;;;;;;;;;;5032636;28;20048;-69
2021/08/07 14:15:38;;;;;;;5.90;1.13;;;;;;;;;;5033014;28;20541;-70
2021/08/07 14:18:04;;;;;;;3.35;1.00;;;;;;;;;;5033004;28;20009;-70
2021/08/07 14:20:31;;;;;;;0.95;0.88;;;;;;;;;;5033009;28;20096;-69
2021/08/07 14:22:57;;;;;;;1.25;0.85;;;;;;;;;;5033420;28;20045;-69
2021/08/07 14:25:23;;;;;;;3.17;1.00;;;;;;;;;;5032960;28;20021;-69
2021/08/07 14:27:49;;;;;;;2.40;1.13;;;;;;;;;;5032793;28;20025;-69
2021/08/07 14:30:15;;;;;;;2.50;1.20;;;;;;;;;;5032970;28;20048;-69
2021/08/07 14:32:42;;;;;;;2.03;0.82;;;;;;;;;;5032878;28;20386;-70
2021/08/07 14:35:08;;;;;;;1.48;0.90;;;;;;;;;;5032859;28;20025;-70
2021/08/07 14:37:35;;;;;;;1.08;0.98;;;;;;;;;;5032883;28;20021;-69
2021/08/07 14:40:01;;;;;;;2.25;1.42;;;;;;;;;;5032735;28;20045;-69
2021/08/07 14:42:27;;;;;;;1.50;0.80;;;;;;;;;;5032574;28;20049;-69
2021/08/07 14:44:54;;;;;;;1.35;0.80;;;;;;;;;;5032834;28;20044;-69
2021/08/07 14:47:20;;;;;;;1.75;1.23;;;;;;;;;;5032776;28;20045;-68